Port Huron, MI (48060)

3:47 PM EST on March 03, 2015 (GMT -0500)
Port Huron Township | Change Station
CLOSE
Current Station
Personal Weather Station
Location: Port Huron, MI
Elevation: 594 ft
Nearby Weather Stations

Elev 594 ft 43.00 °N, 82.48 °W | Updated 12 minutes ago

Snow
Snow
28.1 °F
Feels Like 24 °F
N
4.0
Wind Variable Wind from East
Gusts 10.0 mph

Today
High -- | Low -- °F
--% Chance of Precip.
Yesterday
High -- | Low -- °F
Precip. -- in
7:02 AM 6:21 PM
Waxing Gibbous, 97% visible
Pressure 29.60 in
Visibility 7.0 miles
Clouds Overcast 1200 ft
Windchill 24 °F
Dew Point 25 °F
Humidity 88%
Rainfall 0.00 in
Snow Depth Not available.
UV 1 out of 12
Pollen .50 out of 12
Air Quality Not available.
Flu Activity Not available.
METAR KPHN 032039Z AUTO 17014G23KT 7SM OVC012 M02/M04 A2960 RMK AO2

More Conditions Fewer Conditions

Pressure 29.60 in
Visibility 7.0 miles
Clouds Overcast 1200 ft
Windchill 24 °F
Dew Point 25 °F
Humidity 88%
Rainfall 0.00 in
Snow Depth Not available.
UV 1 out of 12
Pollen .50 out of 12
Air Quality Not available.
Flu Activity Not available.
METAR KPHN 032039Z AUTO 17014G23KT 7SM OVC012 M02/M04 A2960 RMK AO2

More Conditions Fewer Conditions

10-Day Weather Forecast

Almanac

Astronomy

Mar. 03, 2015 Rise Set
Actual Time
Civil Twilight
Nautical Twilight
Astronomical Twilight
Moon
Length of Visible Light
Length of Day
Tomorrow will be .
, % of the Moon is Illuminated

Today's Extremes

State Highs State Lows

Community

WunderPhotos

Upload Photos

1,802,246 photos uploaded!

WunderBlogs® & News

Nearby

Air Quality

  Air Quality AQ Index Pollutant
Not available.

Snow Depth

Station Depth Elevation

Earthquake Activity

City Distance Mag. Time & Date
Minimum magnitude displayed is 2.5.

Coastal Water Temperatures

Place Temperature

Nearby Weather Stations

Winter Weather Advisory
Statement as of 3:35 PM EST on March 03, 2015

... Winter Weather Advisory remains in effect until 7 PM EST this
evening...

Hazardous weather...

* patches of light freezing rain producing glaze of ice.

* Temperatures climbing to around freezing early this evening.

Impacts...

* slippery snow covered and icy untreated roads.

Precautionary/preparedness actions...

* a Winter Weather Advisory means that periods of snow...
   sleet... and freezing rain will cause travel difficulties. Be
   prepared for slippery roads and limited visibilities... and
   use caution while driving.